TimeAKST,TemperatureF,Dew PointF,Humidity,Sea Level PressureIn,VisibilityMPH,Wind Direction,Wind SpeedMPH,Gust SpeedMPH,PrecipitationIn,Events,Conditions,WindDirDegrees,DateUTC
12:16 AM,-9.4,-22.0,54,30.00,10.0,Calm,Calm,-,N/A,,Clear,0,2014-01-30 09:16:00
12:36 AM,-9.4,-9999,N/A,30.00,10.0,Calm,Calm,-,N/A,,Clear,0,2014-01-30 09:36:00
12:56 AM,-11.2,-9999,N/A,30.00,10.0,Calm,Calm,-,N/A,,Clear,0,2014-01-30 09:56:00
1:16 AM,-11.2,-9999,N/A,30.01,10.0,Calm,Calm,-,N/A,,Clear,0,2014-01-30 10:16:00
1:36 AM,-11.2,-29.2,41,30.01,10.0,Calm,Calm,-,N/A,,Clear,0,2014-01-30 10:36:00
1:56 AM,-13.0,-25.6,53,30.01,10.0,Calm,Calm,-,N/A,,Clear,0,2014-01-30 10:56:00
2:16 AM,-13.0,-23.8,59,30.01,10.0,Calm,Calm,-,N/A,,Clear,0,2014-01-30 11:16:00
2:36 AM,-14.8,-27.4,53,30.00,10.0,Calm,Calm,-,N/A,,Clear,0,2014-01-30 11:36:00
2:56 AM,-13.0,-13.0,100,30.00,10.0,Calm,Calm,-,N/A,,Clear,0,2014-01-30 11:56:00
3:16 AM,-14.8,-27.4,53,30.00,8.0,Calm,Calm,-,N/A,,Clear,0,2014-01-30 12:16:00
3:36 AM,-13.0,-29.2,44,30.01,10.0,Calm,Calm,-,N/A,,Clear,0,2014-01-30 12:36:00
3:56 AM,-11.2,-29.2,41,30.01,10.0,Calm,Calm,-,N/A,,Clear,0,2014-01-30 12:56:00
4:16 AM,-9.4,-22.0,54,30.00,10.0,Calm,Calm,-,N/A,,Clear,0,2014-01-30 13:16:00
4:36 AM,-13.0,-18.4,77,30.01,9.0,Calm,Calm,-,N/A,,Clear,0,2014-01-30 13:36:00
4:56 AM,-11.2,-9999,N/A,30.01,10.0,Calm,Calm,-,N/A,,Clear,0,2014-01-30 13:56:00
5:16 AM,-9.4,-9999,N/A,30.02,7.0,Calm,Calm,-,N/A,,Partly Cloudy,0,2014-01-30 14:16:00
5:36 AM,-13.0,-9999,N/A,30.02,10.0,Calm,Calm,-,N/A,,Clear,0,2014-01-30 14:36:00
5:56 AM,-13.0,-9999,N/A,30.02,8.0,Calm,Calm,-,N/A,,Clear,0,2014-01-30 14:56:00
6:16 AM,-11.2,-9999,N/A,30.02,7.0,Calm,Calm,-,N/A,,Clear,0,2014-01-30 15:16:00
6:36 AM,-11.2,-9999,N/A,30.03,9.0,Calm,Calm,-,N/A,,Clear,0,2014-01-30 15:36:00
6:56 AM,-11.2,-27.4,45,30.03,10.0,Calm,Calm,-,N/A,,Partly Cloudy,0,2014-01-30 15:56:00
7:16 AM,-11.2,-23.8,54,30.03,10.0,Calm,Calm,-,N/A,,Mostly Cloudy,0,2014-01-30 16:16:00
7:36 AM,-9.4,-11.2,92,30.04,10.0,Calm,Calm,-,N/A,,Overcast,0,2014-01-30 16:36:00
7:56 AM,-7.6,-9999,N/A,30.03,10.0,Calm,Calm,-,N/A,,Overcast,0,2014-01-30 16:56:00
8:16 AM,-5.8,-9999,N/A,30.03,10.0,Calm,Calm,-,N/A,,Overcast,0,2014-01-30 17:16:00
8:36 AM,-5.8,-25.6,38,30.03,10.0,Calm,Calm,-,N/A,,Overcast,0,2014-01-30 17:36:00
8:56 AM,-2.2,-18.4,46,30.03,10.0,Calm,Calm,-,N/A,,Overcast,0,2014-01-30 17:56:00
9:16 AM,-2.2,-16.6,50,30.03,10.0,Calm,Calm,-,N/A,,Overcast,0,2014-01-30 18:16:00
9:36 AM,-2.2,-13.0,60,30.04,9.0,Calm,Calm,-,N/A,,Overcast,0,2014-01-30 18:36:00
9:56 AM,-2.2,-4.0,92,30.04,10.0,Calm,Calm,-,N/A,,Mostly Cloudy,0,2014-01-30 18:56:00
10:16 AM,-2.2,-22.0,39,30.04,10.0,Calm,Calm,-,N/A,,Partly Cloudy,0,2014-01-30 19:16:00
10:36 AM,-2.2,-25.6,32,30.04,10.0,Calm,Calm,-,N/A,,Clear,0,2014-01-30 19:36:00
10:56 AM,-4.0,-29.2,29,30.04,6.0,Calm,Calm,-,N/A,,Clear,0,2014-01-30 19:56:00
11:16 AM,-4.0,-25.6,35,30.04,10.0,Calm,Calm,-,N/A,,Clear,0,2014-01-30 20:16:00
11:36 AM,-5.8,-27.4,35,30.05,9.0,Calm,Calm,-,N/A,,Mostly Cloudy,0,2014-01-30 20:36:00
11:56 AM,-4.0,-22.0,42,30.06,8.0,Calm,Calm,-,N/A,,Overcast,0,2014-01-30 20:56:00
12:16 PM,-2.2,-9.4,71,30.06,10.0,Calm,Calm,-,N/A,,Overcast,0,2014-01-30 21:16:00
12:36 PM,-2.2,-14.8,55,30.06,10.0,Calm,Calm,-,N/A,,Scattered Clouds,0,2014-01-30 21:36:00
12:56 PM,-2.2,-27.4,29,30.06,10.0,Calm,Calm,-,N/A,,Partly Cloudy,0,2014-01-30 21:56:00
1:16 PM,-2.2,-25.6,32,30.06,10.0,Calm,Calm,-,N/A,,Clear,0,2014-01-30 22:16:00
1:36 PM,-2.2,-16.6,50,30.06,10.0,Calm,Calm,-,N/A,,Partly Cloudy,0,2014-01-30 22:36:00
1:56 PM,-2.2,-9.4,71,30.06,10.0,Calm,Calm,-,N/A,,Partly Cloudy,0,2014-01-30 22:56:00
2:16 PM,-2.2,-14.8,55,30.07,10.0,Calm,Calm,-,N/A,,Partly Cloudy,0,2014-01-30 23:16:00
2:36 PM,-2.2,-16.6,50,30.07,10.0,Calm,Calm,-,N/A,,Clear,0,2014-01-30 23:36:00
2:56 PM,-2.2,-14.8,55,30.07,10.0,Calm,Calm,-,N/A,,Clear,0,2014-01-30 23:56:00
3:16 PM,-2.2,-7.6,78,30.07,10.0,Calm,Calm,-,N/A,,Clear,0,2014-01-31 00:16:00
3:36 PM,-2.2,-29.2,27,30.08,10.0,Calm,Calm,-,N/A,,Clear,0,2014-01-31 00:36:00
3:56 PM,-2.2,-25.6,32,30.08,10.0,Calm,Calm,-,N/A,,Clear,0,2014-01-31 00:56:00
4:16 PM,-4.0,-20.2,46,30.08,10.0,Calm,Calm,-,N/A,,Clear,0,2014-01-31 01:16:00
4:36 PM,-5.8,-22.0,46,30.08,10.0,Calm,Calm,-,N/A,,Clear,0,2014-01-31 01:36:00
4:56 PM,-0.4,-11.2,60,30.08,10.0,Calm,Calm,-,N/A,,Clear,0,2014-01-31 01:56:00
5:16 PM,-4.0,-9999,N/A,30.08,7.0,Calm,Calm,-,N/A,,Clear,0,2014-01-31 02:16:00
5:36 PM,-5.8,-27.4,35,30.09,6.0,Calm,Calm,-,N/A,,Clear,0,2014-01-31 02:36:00
5:56 PM,-5.8,-20.2,50,30.09,10.0,Calm,Calm,-,N/A,,Clear,0,2014-01-31 02:56:00
6:16 PM,-7.6,-20.2,54,30.09,9.0,Calm,Calm,-,N/A,,Clear,0,2014-01-31 03:16:00
6:36 PM,-7.6,-14.8,71,30.09,10.0,Calm,Calm,-,N/A,,Clear,0,2014-01-31 03:36:00
6:56 PM,-4.0,-18.4,50,30.10,10.0,Calm,Calm,-,N/A,,Clear,0,2014-01-31 03:56:00
7:16 PM,-4.0,-23.8,38,30.10,10.0,Calm,Calm,-,N/A,,Clear,0,2014-01-31 04:16:00
7:36 PM,-9.4,-9999,N/A,30.10,9.0,Calm,Calm,-,N/A,,Clear,0,2014-01-31 04:36:00
7:56 PM,-7.6,-31.0,31,30.10,10.0,Calm,Calm,-,N/A,,Clear,0,2014-01-31 04:56:00
8:16 PM,-9.4,-29.2,37,30.10,10.0,Calm,Calm,-,N/A,,Clear,0,2014-01-31 05:16:00
8:36 PM,-9.4,-29.2,37,30.10,10.0,Calm,Calm,-,N/A,,Clear,0,2014-01-31 05:36:00
8:56 PM,-7.6,-27.4,38,30.11,10.0,Calm,Calm,-,N/A,,Clear,0,2014-01-31 05:56:00
9:16 PM,-9.4,-23.8,49,30.11,10.0,Calm,Calm,-,N/A,,Clear,0,2014-01-31 06:16:00
9:36 PM,-5.8,-45.4,13,30.12,9.0,Calm,Calm,-,N/A,,Clear,0,2014-01-31 06:36:00
9:56 PM,-7.6,-9999,N/A,30.12,10.0,Calm,Calm,-,N/A,,Clear,0,2014-01-31 06:56:00
10:16 PM,-7.6,-9999,N/A,30.12,9.0,Calm,Calm,-,N/A,,Clear,0,2014-01-31 07:16:00
10:36 PM,-9.4,-9999,N/A,30.12,7.0,Calm,Calm,-,N/A,,Clear,0,2014-01-31 07:36:00
10:56 PM,-7.6,-29.2,34,30.12,7.0,Calm,Calm,-,N/A,,Clear,0,2014-01-31 07:56:00
11:16 PM,-7.6,-27.4,38,30.12,6.0,Calm,Calm,-,N/A,,Clear,0,2014-01-31 08:16:00
11:36 PM,-7.6,-16.6,65,30.12,4.0,Calm,Calm,-,N/A,,Clear,0,2014-01-31 08:36:00
11:56 PM,-5.8,-13.0,71,30.12,10.0,Calm,Calm,-,N/A,,Clear,0,2014-01-31 08:56:00